Time;durP1;ratioP1;P1;durP2;ratioP2;P2;SDS_P1;SDS_P2;PMS_P1;PMS_P2;Temp;Humidity;BMP_temperature;BMP_pressure;BME280_temperature;BME280_humidity;BME280_pressure;Samples;Min_cycle;Max_cycle;Signal;HPM_P1;HPM_P2
2023/10/21 00:01:42;;;;;;;7.32;3.03;;;12.50;99.90;;;;;;5030739;28;20040;-77
2023/10/21 00:04:08;;;;;;;8.57;2.90;;;12.40;99.90;;;;;;5029181;28;20045;-74
2023/10/21 00:06:34;;;;;;;12.68;3.38;;;12.50;99.90;;;;;;5021361;28;20044;-75
2023/10/21 00:09:00;;;;;;;10.55;2.88;;;12.50;99.90;;;;;;5030716;28;20037;-76
2023/10/21 00:11:25;;;;;;;10.82;3.60;;;12.40;99.90;;;;;;5012880;28;20041;-77
2023/10/21 00:13:51;;;;;;;10.00;2.95;;;12.40;99.90;;;;;;5030219;28;20124;-78
2023/10/21 00:16:16;;;;;;;12.88;2.50;;;12.40;99.90;;;;;;5029236;28;20044;-75
2023/10/21 00:18:42;;;;;;;7.35;2.33;;;12.30;99.90;;;;;;5015095;28;20037;-76
2023/10/21 00:21:07;;;;;;;10.00;3.17;;;12.40;99.90;;;;;;5029461;28;20033;-79
2023/10/21 00:23:33;;;;;;;21.25;3.38;;;12.30;99.90;;;;;;5028744;28;20581;-77
2023/10/21 00:26:02;;;;;;;10.73;2.70;;;12.40;99.90;;;;;;5011987;28;20033;-76
2023/10/21 00:28:28;;;;;;;5.00;1.90;;;12.30;99.90;;;;;;5029056;28;20051;-77
2023/10/21 00:30:54;;;;;;;7.63;2.35;;;12.40;99.90;;;;;;5025963;28;20119;-74
2023/10/21 00:33:19;;;;;;;10.23;2.70;;;12.30;99.90;;;;;;5009718;28;20025;-77
2023/10/21 00:35:45;;;;;;;8.30;2.53;;;12.30;99.90;;;;;;5010092;28;20053;-77
2023/10/21 00:38:11;;;;;;;9.73;3.13;;;12.30;99.90;;;;;;5011720;28;20034;-76
2023/10/21 00:40:37;;;;;;;7.60;2.28;;;12.30;99.90;;;;;;5028708;28;20748;-76
2023/10/21 00:43:03;;;;;;;5.18;2.28;;;12.30;99.90;;;;;;5029723;28;20572;-78
2023/10/21 00:45:29;;;;;;;13.90;3.42;;;12.30;99.90;;;;;;5029175;28;20184;-77
2023/10/21 00:47:54;;;;;;;6.32;2.80;;;12.30;99.90;;;;;;5029689;28;20045;-76
2023/10/21 00:50:20;;;;;;;8.60;3.00;;;12.30;99.90;;;;;;5026033;28;20033;-74
2023/10/21 00:52:49;;;;;;;7.93;2.15;;;12.30;99.90;;;;;;5014717;28;20037;-76
2023/10/21 00:55:15;;;;;;;7.40;2.50;;;12.30;99.90;;;;;;5027989;28;20037;-76
2023/10/21 00:57:41;;;;;;;8.02;2.92;;;12.20;99.90;;;;;;5028417;28;20030;-77
2023/10/21 01:00:13;;;;;;;9.73;3.08;;;12.20;99.90;;;;;;5029281;28;20029;-77
2023/10/21 01:02:41;;;;;;;7.57;2.10;;;12.20;99.90;;;;;;5028508;28;20034;-77
2023/10/21 01:05:07;;;;;;;8.18;2.83;;;12.20;99.90;;;;;;5014095;28;20064;-77
2023/10/21 01:07:34;;;;;;;7.97;2.63;;;12.20;99.90;;;;;;5029153;28;20398;-77
2023/10/21 01:10:03;;;;;;;9.75;2.47;;;12.20;99.90;;;;;;5028668;28;20044;-77
2023/10/21 01:12:29;;;;;;;6.38;2.63;;;12.20;99.90;;;;;;5012026;28;20592;-76
2023/10/21 01:14:55;;;;;;;6.05;2.40;;;12.20;99.90;;;;;;5028691;28;20025;-77
2023/10/21 01:17:21;;;;;;;7.10;2.42;;;12.20;99.90;;;;;;5028195;28;20107;-77
2023/10/21 01:19:48;;;;;;;10.40;2.60;;;12.20;99.90;;;;;;5030451;28;20121;-78
2023/10/21 01:22:14;;;;;;;7.03;3.40;;;12.20;99.90;;;;;;5012939;28;20103;-73
2023/10/21 01:24:40;;;;;;;7.00;2.20;;;12.20;99.90;;;;;;5028510;28;20506;-76
2023/10/21 01:27:05;;;;;;;9.30;2.22;;;12.20;99.90;;;;;;5020944;28;20030;-76
2023/10/21 01:29:31;;;;;;;11.32;2.67;;;12.30;99.90;;;;;;5018907;28;20088;-76
2023/10/21 01:31:56;;;;;;;7.30;2.50;;;12.30;99.90;;;;;;5027040;28;20021;-75
2023/10/21 01:34:22;;;;;;;9.93;2.80;;;12.30;99.90;;;;;;5027304;28;20033;-75
2023/10/21 01:36:47;;;;;;;7.03;2.83;;;12.30;99.90;;;;;;5027203;28;20034;-75
2023/10/21 01:39:14;;;;;;;11.90;2.88;;;12.30;99.90;;;;;;5024293;28;20033;-77
2023/10/21 01:41:39;;;;;;;5.13;2.75;;;12.30;99.90;;;;;;5027627;28;20487;-76
2023/10/21 01:44:05;;;;;;;13.77;2.75;;;12.30;99.90;;;;;;5027331;28;20087;-75
2023/10/21 01:46:31;;;;;;;9.10;2.63;;;12.30;99.90;;;;;;5019351;28;20546;-74
2023/10/21 01:48:56;;;;;;;7.63;3.03;;;12.30;99.90;;;;;;5023059;28;20112;-76
2023/10/21 01:51:22;;;;;;;6.00;2.78;;;12.30;99.90;;;;;;5026190;28;24758;-78
2023/10/21 01:53:47;;;;;;;7.47;2.72;;;12.30;99.90;;;;;;5028190;28;20483;-77
2023/10/21 01:56:13;;;;;;;9.70;3.22;;;12.30;99.90;;;;;;5027643;28;20033;-75
2023/10/21 01:58:39;;;;;;;5.50;2.58;;;12.30;99.90;;;;;;5027249;28;20037;-75
2023/10/21 02:01:11;;;;;;;6.25;2.25;;;12.30;99.90;;;;;;5009697;28;20368;-76
2023/10/21 02:03:41;;;;;;;7.38;2.72;;;12.30;99.90;;;;;;5010610;28;20490;-75
2023/10/21 02:06:07;;;;;;;10.85;3.20;;;12.30;99.90;;;;;;5012658;28;20046;-75
2023/10/21 02:08:33;;;;;;;6.82;2.60;;;12.30;99.90;;;;;;5014327;28;20487;-76
2023/10/21 02:10:59;;;;;;;11.90;2.83;;;12.30;99.90;;;;;;5027509;28;20025;-75
2023/10/21 02:13:24;;;;;;;5.25;2.80;;;12.20;99.90;;;;;;5026119;28;20501;-75
2023/10/21 02:15:50;;;;;;;9.43;2.58;;;12.20;99.90;;;;;;5027216;28;20025;-75
2023/10/21 02:18:17;;;;;;;10.05;2.95;;;12.20;99.90;;;;;;5025980;28;20086;-75
2023/10/21 02:20:43;;;;;;;11.73;2.70;;;12.20;99.90;;;;;;5027417;28;20506;-74
2023/10/21 02:23:09;;;;;;;10.32;3.25;;;12.20;99.90;;;;;;5026281;28;20040;-75
2023/10/21 02:25:35;;;;;;;8.05;3.35;;;12.20;99.90;;;;;;5010525;28;20041;-77
2023/10/21 02:28:01;;;;;;;7.57;2.30;;;12.10;99.90;;;;;;5027546;28;20518;-76
2023/10/21 02:30:27;;;;;;;7.65;2.50;;;12.20;99.90;;;;;;5026742;28;20598;-75
2023/10/21 02:32:52;;;;;;;9.13;2.58;;;12.20;99.90;;;;;;5012557;28;20042;-73
2023/10/21 02:35:18;;;;;;;6.63;2.40;;;12.10;99.90;;;;;;5026028;28;20029;-75
2023/10/21 02:37:45;;;;;;;7.20;2.40;;;12.10;99.90;;;;;;5026987;28;20072;-75
2023/10/21 02:40:15;;;;;;;6.47;2.10;;;12.10;99.90;;;;;;5026245;28;20084;-74
2023/10/21 02:42:44;;;;;;;9.98;2.50;;;12.10;99.90;;;;;;5019835;28;20076;-75
2023/10/21 02:45:10;;;;;;;4.47;1.67;;;12.10;99.90;;;;;;5026727;28;20029;-76
2023/10/21 02:47:36;;;;;;;5.45;2.33;;;12.10;99.90;;;;;;5026978;28;20041;-76
2023/10/21 02:50:06;;;;;;;5.57;2.35;;;12.10;99.90;;;;;;5021677;28;20037;-75
2023/10/21 02:52:39;;;;;;;15.05;2.90;;;12.10;99.90;;;;;;5016485;28;20033;-75
2023/10/21 02:55:06;;;;;;;6.53;2.67;;;12.10;99.90;;;;;;5026854;28;20048;-75
2023/10/21 02:57:31;;;;;;;5.20;2.40;;;12.10;99.90;;;;;;5013215;28;20037;-76
2023/10/21 02:59:58;;;;;;;12.63;2.97;;;12.10;99.90;;;;;;5020467;28;20030;-75
2023/10/21 03:02:23;;;;;;;9.13;2.60;;;12.10;99.90;;;;;;5024214;28;20057;-78
2023/10/21 03:04:49;;;;;;;10.35;3.00;;;12.10;99.90;;;;;;5027015;28;20028;-76
2023/10/21 03:07:14;;;;;;;8.43;2.70;;;12.10;99.90;;;;;;5026389;28;20037;-75
2023/10/21 03:09:40;;;;;;;6.85;2.30;;;12.10;99.90;;;;;;5026764;28;20037;-75
2023/10/21 03:12:07;;;;;;;16.15;2.70;;;12.10;99.90;;;;;;5026381;28;20041;-76
2023/10/21 03:14:33;;;;;;;6.72;2.67;;;12.10;99.90;;;;;;5025989;28;20037;-75
2023/10/21 03:16:59;;;;;;;8.15;2.22;;;12.10;99.90;;;;;;5026771;28;20049;-76
2023/10/21 03:19:24;;;;;;;9.20;2.58;;;12.10;99.90;;;;;;5025797;28;20033;-75
2023/10/21 03:21:50;;;;;;;12.57;2.33;;;12.10;99.90;;;;;;5026763;28;20129;-75
2023/10/21 03:24:16;;;;;;;11.20;3.22;;;12.00;99.90;;;;;;5026050;28;20034;-76
2023/10/21 03:26:41;;;;;;;8.48;2.67;;;12.00;99.90;;;;;;5026172;28;20037;-73
2023/10/21 03:29:08;;;;;;;4.85;2.35;;;12.00;99.90;;;;;;5026050;28;20041;-75
2023/10/21 03:31:34;;;;;;;10.73;3.00;;;12.00;99.90;;;;;;5026044;28;20103;-75
2023/10/21 03:33:59;;;;;;;5.45;2.72;;;12.10;99.90;;;;;;5026455;28;20021;-75
2023/10/21 03:36:26;;;;;;;8.35;2.35;;;12.10;99.90;;;;;;5025415;28;20675;-75
2023/10/21 03:38:51;;;;;;;7.63;2.78;;;12.10;99.90;;;;;;5026153;28;20091;-76
2023/10/21 03:41:17;;;;;;;8.35;2.63;;;12.10;99.90;;;;;;5024934;28;20041;-75
2023/10/21 03:43:43;;;;;;;7.22;2.85;;;12.10;99.90;;;;;;5026464;28;20069;-75
2023/10/21 03:46:14;;;;;;;6.75;2.75;;;12.10;99.90;;;;;;5025707;28;20030;-75
2023/10/21 03:48:40;;;;;;;7.25;2.40;;;12.10;99.90;;;;;;5018344;28;20037;-75
2023/10/21 03:51:06;;;;;;;6.78;2.20;;;12.10;99.90;;;;;;5018091;28;20034;-75
2023/10/21 03:53:33;;;;;;;11.52;2.85;;;12.10;99.90;;;;;;5025909;28;20037;-75
2023/10/21 03:55:59;;;;;;;6.07;2.95;;;12.10;99.90;;;;;;5026749;28;20663;-74
2023/10/21 03:58:26;;;;;;;8.63;2.60;;;12.10;99.90;;;;;;5025104;28;20083;-76
2023/10/21 04:00:52;;;;;;;8.98;2.90;;;12.10;99.90;;;;;;5029428;28;20671;-75
2023/10/21 04:03:17;;;;;;;5.63;2.22;;;12.00;99.90;;;;;;5028790;28;20060;-77
2023/10/21 04:05:43;;;;;;;7.80;2.60;;;12.00;99.90;;;;;;5028426;28;20026;-75
2023/10/21 04:08:08;;;;;;;9.65;2.85;;;12.00;99.90;;;;;;5024078;28;20076;-75
2023/10/21 04:10:34;;;;;;;10.48;2.38;;;12.10;99.90;;;;;;5029350;28;20065;-75
2023/10/21 04:13:01;;;;;;;7.13;2.95;;;12.10;99.90;;;;;;5011734;28;20530;-76
2023/10/21 04:15:26;;;;;;;10.73;3.20;;;12.10;99.90;;;;;;5028880;28;20034;-76
2023/10/21 04:17:52;;;;;;;7.75;2.65;;;12.10;99.90;;;;;;5029334;28;20037;-76
2023/10/21 04:20:18;;;;;;;9.18;2.83;;;12.20;99.90;;;;;;5028042;28;20052;-75
2023/10/21 04:22:44;;;;;;;7.20;2.45;;;12.20;99.90;;;;;;5022253;28;20036;-75
2023/10/21 04:25:10;;;;;;;8.02;3.22;;;12.30;99.90;;;;;;5029516;28;20052;-74
2023/10/21 04:27:36;;;;;;;6.78;2.72;;;12.30;99.90;;;;;;5029147;28;20034;-75
2023/10/21 04:30:03;;;;;;;9.60;2.60;;;12.30;99.90;;;;;;5029721;28;20048;-75
2023/10/21 04:32:29;;;;;;;9.40;2.35;;;12.30;99.90;;;;;;5010347;28;21206;-74
2023/10/21 04:34:56;;;;;;;7.47;2.72;;;12.30;99.90;;;;;;5029595;28;20032;-74
2023/10/21 04:37:21;;;;;;;9.85;2.78;;;12.20;99.90;;;;;;5021062;28;20032;-76
2023/10/21 04:39:47;;;;;;;13.20;2.42;;;12.20;99.90;;;;;;5029218;28;20390;-76
2023/10/21 04:42:13;;;;;;;6.95;2.30;;;12.20;99.90;;;;;;5027584;28;20026;-74
2023/10/21 04:44:38;;;;;;;7.15;2.63;;;12.20;99.90;;;;;;5020687;28;20057;-75
2023/10/21 04:47:04;;;;;;;4.72;2.40;;;12.10;99.90;;;;;;5019379;28;20115;-76
2023/10/21 04:49:30;;;;;;;6.03;2.15;;;12.10;99.90;;;;;;5026849;28;20079;-75
2023/10/21 04:51:56;;;;;;;7.18;2.30;;;12.10;99.90;;;;;;5022868;28;20036;-74
2023/10/21 04:54:21;;;;;;;10.48;2.78;;;12.10;99.90;;;;;;5018797;28;20036;-76
2023/10/21 04:56:47;;;;;;;4.75;2.10;;;12.20;99.90;;;;;;5029259;28;20021;-75
2023/10/21 04:59:12;;;;;;;9.85;2.67;;;12.20;99.90;;;;;;5025472;28;20076;-77
2023/10/21 05:01:38;;;;;;;5.10;2.40;;;12.20;99.90;;;;;;5028406;28;20129;-75
2023/10/21 05:04:04;;;;;;;7.45;3.35;;;12.30;99.90;;;;;;5029088;28;20049;-75
2023/10/21 05:06:29;;;;;;;7.78;2.15;;;12.30;99.90;;;;;;5025226;28;20083;-76
2023/10/21 05:08:55;;;;;;;11.93;2.70;;;12.30;99.90;;;;;;5029357;28;20032;-75
2023/10/21 05:11:21;;;;;;;8.82;2.35;;;12.30;99.90;;;;;;5026522;28;20029;-75
2023/10/21 05:13:47;;;;;;;8.60;2.13;;;12.40;99.90;;;;;;5028649;28;20038;-75
2023/10/21 05:16:12;;;;;;;7.60;2.50;;;12.40;99.90;;;;;;5014488;28;20064;-74
2023/10/21 05:18:40;;;;;;;5.65;2.20;;;12.40;99.90;;;;;;5028707;28;20036;-74
2023/10/21 05:21:07;;;;;;;11.40;2.20;;;12.40;99.90;;;;;;5024801;28;20025;-74
2023/10/21 05:23:33;;;;;;;14.75;2.38;;;12.40;99.90;;;;;;5027490;28;20043;-75
2023/10/21 05:25:59;;;;;;;9.60;2.58;;;12.40;99.90;;;;;;5028557;28;20053;-75
2023/10/21 05:28:25;;;;;;;8.82;2.65;;;12.40;99.90;;;;;;5017752;28;20053;-75
2023/10/21 05:30:50;;;;;;;7.18;2.60;;;12.40;99.90;;;;;;5019002;28;20129;-75
2023/10/21 05:33:16;;;;;;;4.78;1.85;;;12.40;99.90;;;;;;5027618;28;20487;-74
2023/10/21 05:35:42;;;;;;;11.35;2.45;;;12.40;99.90;;;;;;5028021;28;20045;-76
2023/10/21 05:38:07;;;;;;;9.38;2.10;;;12.40;99.90;;;;;;5028179;28;20032;-73
2023/10/21 05:40:33;;;;;;;19.10;4.05;;;12.50;99.90;;;;;;5018297;28;20042;-75
2023/10/21 05:42:58;;;;;;;9.00;2.45;;;12.40;99.90;;;;;;5018379;28;20623;-75
2023/10/21 05:45:24;;;;;;;8.60;2.53;;;12.50;99.90;;;;;;5026880;28;20467;-73
2023/10/21 05:47:49;;;;;;;10.10;2.30;;;12.50;99.90;;;;;;5028372;28;20853;-75
2023/10/21 05:50:19;;;;;;;5.78;1.88;;;12.50;99.90;;;;;;5027490;28;20425;-77
2023/10/21 05:52:45;;;;;;;11.13;2.90;;;12.50;99.90;;;;;;5010185;28;20033;-79
2023/10/21 05:55:11;;;;;;;7.00;1.95;;;12.50;99.90;;;;;;5027788;28;20021;-75
2023/10/21 05:57:36;;;;;;;9.82;2.30;;;12.50;99.90;;;;;;5027347;28;20038;-75
2023/10/21 06:00:05;;;;;;;8.85;1.90;;;12.40;99.90;;;;;;5028093;28;20107;-75
2023/10/21 06:02:31;;;;;;;7.85;2.40;;;12.40;99.90;;;;;;5026615;28;20466;-77
2023/10/21 06:04:57;;;;;;;9.13;1.90;;;12.30;99.90;;;;;;5028099;28;20025;-75
2023/10/21 06:07:22;;;;;;;7.32;2.75;;;12.30;99.90;;;;;;5026938;28;20036;-75
2023/10/21 06:09:48;;;;;;;10.93;2.22;;;12.30;99.90;;;;;;5014978;28;20022;-74
2023/10/21 06:12:13;;;;;;;7.40;2.85;;;12.40;99.90;;;;;;5027305;28;20588;-74
2023/10/21 06:14:39;;;;;;;7.13;2.20;;;12.30;99.90;;;;;;5026889;28;20151;-76
2023/10/21 06:17:05;;;;;;;7.13;2.88;;;12.40;99.90;;;;;;5027162;28;20112;-76
2023/10/21 06:19:30;;;;;;;6.93;2.42;;;12.40;99.90;;;;;;5008996;28;20093;-76
2023/10/21 06:21:56;;;;;;;8.38;2.55;;;12.40;99.90;;;;;;5027738;28;20116;-75
2023/10/21 06:24:21;;;;;;;6.38;2.15;;;12.40;99.90;;;;;;5026312;28;20178;-74
2023/10/21 06:26:47;;;;;;;7.03;2.88;;;12.40;99.90;;;;;;5010670;28;20041;-75
2023/10/21 06:29:12;;;;;;;9.30;2.50;;;12.40;99.90;;;;;;5010901;28;20072;-76
2023/10/21 06:31:38;;;;;;;8.73;2.30;;;12.40;99.90;;;;;;5026898;28;20037;-76
2023/10/21 06:34:05;;;;;;;9.82;2.35;;;12.40;99.90;;;;;;5013165;28;20044;-75
2023/10/21 06:36:30;;;;;;;6.15;1.80;;;12.40;99.90;;;;;;5026782;28;20069;-75
2023/10/21 06:38:57;;;;;;;7.18;2.42;;;12.50;99.90;;;;;;5025767;28;20033;-76
2023/10/21 06:41:23;;;;;;;8.98;1.90;;;12.50;99.90;;;;;;5025188;28;20038;-74
2023/10/21 06:43:49;;;;;;;11.57;2.35;;;12.50;99.90;;;;;;5025600;28;20030;-74
2023/10/21 06:46:15;;;;;;;6.00;1.90;;;12.60;99.90;;;;;;5017128;28;20092;-75
2023/10/21 06:48:41;;;;;;;5.82;2.33;;;12.60;99.90;;;;;;5024622;28;20034;-76
2023/10/21 06:51:06;;;;;;;8.10;2.70;;;12.70;99.90;;;;;;5024852;28;20507;-75
2023/10/21 06:53:32;;;;;;;6.93;1.92;;;12.70;99.90;;;;;;5003894;28;20124;-76
2023/10/21 06:55:58;;;;;;;5.90;2.00;;;12.70;99.90;;;;;;5006725;28;20121;-75
2023/10/21 06:58:26;;;;;;;9.75;2.15;;;12.80;99.90;;;;;;5008032;28;20108;-74
2023/10/21 07:00:52;;;;;;;8.88;1.98;;;12.70;99.90;;;;;;5011958;28;20037;-76
2023/10/21 07:03:17;;;;;;;8.65;1.67;;;12.80;99.90;;;;;;5015521;28;20038;-75
2023/10/21 07:05:43;;;;;;;6.25;1.67;;;12.80;99.90;;;;;;5025736;28;20562;-75
2023/10/21 07:08:08;;;;;;;5.75;1.83;;;12.70;99.90;;;;;;5025484;28;20449;-75
2023/10/21 07:10:34;;;;;;;10.52;2.40;;;12.70;99.90;;;;;;5025520;28;20120;-75
2023/10/21 07:13:00;;;;;;;12.40;2.35;;;12.80;99.90;;;;;;5025741;28;20648;-76
2023/10/21 07:15:33;;;;;;;15.75;3.17;;;12.80;99.90;;;;;;5024621;28;20037;-74
2023/10/21 07:17:58;;;;;;;7.30;2.78;;;12.80;99.90;;;;;;5025937;28;20041;-76
2023/10/21 07:20:26;;;;;;;8.27;2.10;;;12.80;99.90;;;;;;5025146;28;20038;-76
2023/10/21 07:22:52;;;;;;;7.97;1.90;;;12.90;99.90;;;;;;5025511;28;20040;-75
2023/10/21 07:25:20;;;;;;;5.38;1.60;;;12.90;99.90;;;;;;5024540;28;20028;-74
2023/10/21 07:27:47;;;;;;;5.03;1.23;;;12.90;99.90;;;;;;5025877;28;20033;-74
2023/10/21 07:30:14;;;;;;;5.40;1.67;;;12.90;99.90;;;;;;5025045;28;20121;-74
2023/10/21 07:32:40;;;;;;;10.68;2.92;;;13.00;99.90;;;;;;5024794;28;20098;-75
2023/10/21 07:35:06;;;;;;;4.40;1.38;;;13.00;99.90;;;;;;5019081;28;20041;-75
2023/10/21 07:37:32;;;;;;;7.80;1.40;;;13.00;99.90;;;;;;5029532;28;20108;-74
2023/10/21 07:39:58;;;;;;;4.47;1.98;;;13.00;99.90;;;;;;5014231;28;20050;-75
2023/10/21 07:42:24;;;;;;;5.75;1.85;;;12.90;99.90;;;;;;5024084;28;20103;-75
2023/10/21 07:44:50;;;;;;;7.70;1.60;;;12.90;99.90;;;;;;5011587;28;20030;-74
2023/10/21 07:47:15;;;;;;;4.82;1.30;;;13.00;99.90;;;;;;5020903;28;20025;-75
2023/10/21 07:49:41;;;;;;;2.58;1.38;;;12.90;99.90;;;;;;5025551;28;20026;-74
2023/10/21 07:52:06;;;;;;;5.75;1.92;;;12.90;99.90;;;;;;5028818;28;20145;-76
2023/10/21 07:54:32;;;;;;;3.50;1.48;;;13.00;99.90;;;;;;5010929;28;20053;-77
2023/10/21 07:56:58;;;;;;;3.38;1.10;;;13.00;99.90;;;;;;5029413;28;20022;-76
2023/10/21 07:59:27;;;;;;;4.70;2.35;;;13.00;99.90;;;;;;5027984;28;20371;-76
2023/10/21 08:01:54;;;;;;;5.30;1.00;;;13.00;99.90;;;;;;5029129;28;20033;-75
2023/10/21 08:04:19;;;;;;;6.60;2.13;;;13.00;99.90;;;;;;5014866;28;20116;-77
2023/10/21 08:06:46;;;;;;;2.88;1.02;;;13.00;99.90;;;;;;5029021;28;20501;-76
2023/10/21 08:09:15;;;;;;;4.45;1.13;;;13.00;99.90;;;;;;5029357;28;20540;-75
2023/10/21 08:11:41;;;;;;;4.40;1.20;;;13.00;99.90;;;;;;5023320;28;20505;-75
2023/10/21 08:14:07;;;;;;;1.77;0.93;;;13.10;99.90;;;;;;5029363;28;20710;-76
2023/10/21 08:16:34;;;;;;;5.95;1.50;;;13.10;99.90;;;;;;5021290;28;20037;-74
2023/10/21 08:19:00;;;;;;;3.60;0.85;;;13.10;99.90;;;;;;5022847;28;20753;-74
2023/10/21 08:21:26;;;;;;;3.45;1.10;;;13.20;99.90;;;;;;5026517;28;20033;-75
2023/10/21 08:23:52;;;;;;;4.25;1.05;;;13.10;99.90;;;;;;5028418;28;20033;-76
2023/10/21 08:26:17;;;;;;;4.18;0.90;;;13.20;99.90;;;;;;5018369;28;20037;-76
2023/10/21 08:28:43;;;;;;;5.22;1.60;;;13.10;99.90;;;;;;5028490;28;20070;-74
2023/10/21 08:31:08;;;;;;;2.80;1.40;;;13.00;99.90;;;;;;5002609;28;20124;-75
2023/10/21 08:33:34;;;;;;;2.33;1.00;;;13.10;99.90;;;;;;5027331;28;20033;-74
2023/10/21 08:36:01;;;;;;;7.60;1.50;;;13.10;99.90;;;;;;5007148;28;20026;-76
2023/10/21 08:38:27;;;;;;;2.60;0.73;;;13.10;99.90;;;;;;5018708;28;20534;-76
2023/10/21 08:40:53;;;;;;;1.73;0.75;;;13.10;99.90;;;;;;5020281;28;20037;-74
2023/10/21 08:43:19;;;;;;;1.73;0.73;;;13.10;99.90;;;;;;5027260;28;20037;-77
2023/10/21 08:45:45;;;;;;;3.17;1.00;;;13.10;99.90;;;;;;5028128;28;20045;-75
2023/10/21 08:48:12;;;;;;;2.97;0.68;;;13.20;99.90;;;;;;5020798;28;20064;-75
2023/10/21 08:50:39;;;;;;;1.85;0.52;;;13.30;99.90;;;;;;5027678;28;20037;-73
2023/10/21 08:53:13;;;;;;;2.85;0.38;;;13.50;99.90;;;;;;5028873;28;20163;-75
2023/10/21 08:55:39;;;;;;;0.52;0.20;;;13.50;99.90;;;;;;5024151;28;20049;-76
2023/10/21 08:58:08;;;;;;;1.05;0.25;;;13.50;99.90;;;;;;5028312;28;20025;-77
2023/10/21 09:00:34;;;;;;;1.77;0.53;;;13.40;99.90;;;;;;5027884;28;20029;-75
2023/10/21 09:03:01;;;;;;;1.35;0.20;;;13.40;99.90;;;;;;5027934;28;20041;-74
2023/10/21 09:05:27;;;;;;;0.85;0.10;;;13.50;99.90;;;;;;5020517;28;20187;-74
2023/10/21 09:07:53;;;;;;;1.83;0.20;;;13.40;99.90;;;;;;5028321;28;20113;-76
2023/10/21 09:10:20;;;;;;;2.17;0.40;;;13.40;99.90;;;;;;5027440;28;20037;-75
2023/10/21 09:12:46;;;;;;;0.63;0.20;;;13.30;99.90;;;;;;5025923;28;20033;-77
2023/10/21 09:15:12;;;;;;;1.52;0.35;;;13.30;99.90;;;;;;5027830;28;20036;-76
2023/10/21 09:17:45;;;;;;;2.63;0.10;;;13.30;99.90;;;;;;5013216;28;20064;-75
2023/10/21 09:20:13;;;;;;;0.25;0.20;;;13.30;99.90;;;;;;5028008;28;20039;-76
2023/10/21 09:22:41;;;;;;;1.92;0.20;;;13.30;99.90;;;;;;5028387;28;20052;-76
2023/10/21 09:25:18;;;;;;;1.88;0.43;;;13.20;99.90;;;;;;5018936;28;20210;-75
2023/10/21 09:27:55;;;;;;;2.45;0.20;;;13.20;99.90;;;;;;5028754;28;20048;-74
2023/10/21 09:30:23;;;;;;;0.45;0.10;;;13.20;99.90;;;;;;5009860;28;20034;-76
2023/10/21 09:32:49;;;;;;;1.30;0.10;;;13.20;99.90;;;;;;5028534;28;20044;-75
2023/10/21 09:35:22;;;;;;;1.15;0.20;;;13.20;99.90;;;;;;5028419;28;20026;-76
2023/10/21 09:37:48;;;;;;;2.83;0.47;;;13.20;99.90;;;;;;5028219;28;20033;-74
2023/10/21 09:40:15;;;;;;;5.35;0.13;;;13.20;99.90;;;;;;5021784;28;20078;-75
2023/10/21 09:42:44;;;;;;;2.33;0.55;;;13.30;99.90;;;;;;5027570;28;20037;-74
2023/10/21 09:45:11;;;;;;;1.40;0.10;;;13.30;99.90;;;;;;5028001;28;20332;-75
2023/10/21 09:47:39;;;;;;;1.77;0.35;;;13.30;99.90;;;;;;5027798;28;20479;-76
2023/10/21 09:50:09;;;;;;;0.68;0.10;;;13.30;99.90;;;;;;5028682;28;20064;-75
2023/10/21 09:52:51;;;;;;;0.98;0.13;;;13.30;99.90;;;;;;5028002;28;20029;-77
2023/10/21 09:55:24;;;;;;;1.90;0.40;;;13.30;99.90;;;;;;5028344;28;20029;-74
2023/10/21 09:57:55;;;;;;;1.92;0.40;;;13.30;99.90;;;;;;5026674;28;20083;-75
2023/10/21 10:00:24;;;;;;;2.78;0.20;;;13.30;99.90;;;;;;5013661;28;20037;-74
2023/10/21 10:02:53;;;;;;;3.60;0.20;;;13.30;99.90;;;;;;5027178;28;20038;-75
2023/10/21 10:05:20;;;;;;;1.20;0.30;;;13.30;99.90;;;;;;5025846;28;20245;-74
2023/10/21 10:07:47;;;;;;;0.73;0.13;;;13.40;99.90;;;;;;5027317;28;20017;-75
2023/10/21 10:10:15;;;;;;;1.33;0.32;;;13.40;99.90;;;;;;5026486;28;20021;-73
2023/10/21 10:12:55;;;;;;;1.17;0.40;;;13.50;99.90;;;;;;5026581;28;20052;-74
2023/10/21 10:15:34;;;;;;;2.40;0.20;;;13.60;99.90;;;;;;5026156;28;20033;-76
2023/10/21 10:18:05;;;;;;;0.95;0.35;;;13.60;99.90;;;;;;5009377;28;20034;-75
2023/10/21 10:20:31;;;;;;;2.47;0.60;;;13.60;99.90;;;;;;5025967;28;20045;-77
2023/10/21 10:23:01;;;;;;;4.60;0.50;;;13.70;99.90;;;;;;5011413;28;20045;-77
2023/10/21 10:25:32;;;;;;;4.93;0.28;;;13.80;99.90;;;;;;5025354;28;20150;-76
2023/10/21 10:28:10;;;;;;;0.90;0.30;;;13.80;99.90;;;;;;5010615;28;20034;-75
2023/10/21 10:30:38;;;;;;;1.40;0.70;;;13.90;99.90;;;;;;5026268;28;20029;-75
2023/10/21 10:33:12;;;;;;;3.30;0.40;;;13.90;99.90;;;;;;5026453;28;20679;-75
2023/10/21 10:35:46;;;;;;;2.92;0.55;;;13.80;99.90;;;;;;5012166;28;20030;-75
2023/10/21 10:38:16;;;;;;;2.17;0.20;;;13.90;99.90;;;;;;5018844;28;20698;-75
2023/10/21 10:40:44;;;;;;;2.20;0.30;;;13.90;99.90;;;;;;5025895;28;20472;-75
2023/10/21 10:43:15;;;;;;;3.47;0.28;;;14.00;99.90;;;;;;5025821;28;20041;-76
2023/10/21 10:45:41;;;;;;;2.55;0.10;;;14.10;99.90;;;;;;5025746;28;20064;-74
2023/10/21 10:48:07;;;;;;;1.60;0.20;;;14.10;99.90;;;;;;5007791;28;20021;-77
2023/10/21 10:50:37;;;;;;;3.60;0.30;;;14.10;99.90;;;;;;5025681;28;20061;-76
2023/10/21 10:53:20;;;;;;;2.87;0.60;;;14.10;99.90;;;;;;5026305;28;20049;-75
2023/10/21 10:55:55;;;;;;;1.52;0.20;;;14.10;99.90;;;;;;5004606;28;20029;-75
2023/10/21 10:58:21;;;;;;;1.55;0.20;;;14.20;99.90;;;;;;5024882;28;20030;-75
2023/10/21 11:00:48;;;;;;;1.27;0.20;;;14.20;99.90;;;;;;5026251;28;20029;-74
2023/10/21 11:03:27;;;;;;;3.00;0.50;;;14.20;99.90;;;;;;5025335;28;20061;-76
2023/10/21 11:05:55;;;;;;;1.95;0.60;;;14.30;99.90;;;;;;5025692;28;20083;-76
2023/10/21 11:08:21;;;;;;;2.22;0.77;;;14.30;99.90;;;;;;5025148;28;20021;-75
2023/10/21 11:10:47;;;;;;;1.98;0.30;;;14.40;99.90;;;;;;5026027;28;20117;-76
2023/10/21 11:13:13;;;;;;;3.58;0.25;;;14.30;99.90;;;;;;5025391;28;20034;-75
2023/10/21 11:15:44;;;;;;;1.10;0.10;;;14.30;99.90;;;;;;5025401;28;20041;-74
2023/10/21 11:18:13;;;;;;;2.83;0.63;;;14.30;99.90;;;;;;5008820;28;20034;-77
2023/10/21 11:20:48;;;;;;;2.65;1.00;;;14.30;99.90;;;;;;5025227;28;20041;-74
2023/10/21 11:23:18;;;;;;;2.38;0.10;;;14.30;99.90;;;;;;5025514;28;20087;-76
2023/10/21 11:25:47;;;;;;;3.58;0.40;;;14.20;99.90;;;;;;5019481;28;20026;-75
2023/10/21 11:28:14;;;;;;;1.77;0.20;;;14.30;99.90;;;;;;5003332;28;20087;-76
2023/10/21 11:30:44;;;;;;;3.40;0.60;;;14.40;99.90;;;;;;5024032;28;20479;-75
2023/10/21 11:33:10;;;;;;;1.42;0.93;;;14.40;99.90;;;;;;4999557;28;20034;-75
2023/10/21 11:35:40;;;;;;;1.88;0.65;;;14.40;99.90;;;;;;5025627;28;20026;-76
2023/10/21 11:38:06;;;;;;;3.97;0.30;;;14.40;99.90;;;;;;5014712;28;20044;-76
2023/10/21 11:40:36;;;;;;;1.98;0.43;;;14.40;99.90;;;;;;5019984;28;20057;-77
2023/10/21 11:43:06;;;;;;;2.53;0.50;;;14.40;99.90;;;;;;5023208;28;20463;-75
2023/10/21 11:45:32;;;;;;;;;;;14.40;99.90;;;;;;5003115;28;20061;-76
2023/10/21 11:48:01;;;;;;;2.45;0.25;;;14.40;99.90;;;;;;5014544;28;20405;-76
2023/10/21 11:50:34;;;;;;;2.92;0.28;;;14.40;99.90;;;;;;5024471;28;20061;-76
2023/10/21 11:53:04;;;;;;;1.52;0.25;;;14.50;99.90;;;;;;5025241;28;20041;-76
2023/10/21 12:18:14;;;;;;;3.33;0.40;;;14.30;99.90;;;;;;5025227;28;20410;-77
2023/10/21 12:26:17;;;;;;;3.25;0.98;;;14.40;99.90;;;;;;5029269;28;20410;-77
2023/10/21 12:29:53;;;;;;;6.30;0.60;;;14.50;99.90;;;;;;5019175;28;20064;-76
2023/10/21 12:37:20;;;;;;;3.28;0.88;;;14.50;99.90;;;;;;5030329;28;20500;-77
2023/10/21 12:39:48;;;;;;;3.65;0.30;;;14.40;99.90;;;;;;5016352;28;20494;-77
2023/10/21 12:42:49;;;;;;;3.38;0.70;;;14.50;99.90;;;;;;5028790;28;20083;-77
2023/10/21 12:45:12;;;;;;;3.53;1.10;;;14.50;99.90;;;;;;5013708;28;20042;-77
2023/10/21 12:47:38;;;;;;;5.70;1.02;;;14.50;99.90;;;;;;5014906;28;20137;-77
2023/10/21 12:50:12;;;;;;;7.47;1.40;;;14.50;99.90;;;;;;5014735;28;20037;-76
2023/10/21 12:52:38;;;;;;;2.22;0.40;;;14.50;99.90;;;;;;5024771;28;20037;-78
2023/10/21 12:55:10;;;;;;;8.23;0.85;;;14.40;99.90;;;;;;5015391;28;20155;-77
2023/10/21 12:57:36;;;;;;;3.58;0.43;;;14.50;99.90;;;;;;5022862;28;20124;-78
2023/10/21 13:00:03;;;;;;;3.17;1.02;;;14.40;99.90;;;;;;5015408;28;20033;-78
2023/10/21 13:02:29;;;;;;;4.28;0.90;;;14.50;99.90;;;;;;5029304;28;20037;-77
2023/10/21 13:04:54;;;;;;;2.67;0.63;;;14.60;99.90;;;;;;5027950;28;20607;-79
2023/10/21 13:07:20;;;;;;;2.97;0.98;;;14.50;99.90;;;;;;5012104;28;20075;-77
2023/10/21 13:09:46;;;;;;;5.72;1.15;;;14.60;99.90;;;;;;5012833;28;20557;-77
2023/10/21 13:12:14;;;;;;;4.53;0.40;;;14.60;99.90;;;;;;5029014;28;20506;-77
2023/10/21 13:14:40;;;;;;;9.30;0.68;;;14.60;99.90;;;;;;5028733;28;20550;-75
2023/10/21 13:17:08;;;;;;;3.38;0.70;;;14.60;99.90;;;;;;5028029;28;20026;-77
2023/10/21 13:19:34;;;;;;;6.68;0.43;;;14.60;99.90;;;;;;5013996;28;20091;-77